sensor_id;sensor_type;location;lat;lon;timestamp;pressure;altitude;pressure_sealevel;temperature;humidity
29569;BME280;16501;51.462;14.346;2023-05-03T00:02:07;101205.09;;;8.16;74.59
29569;BME280;16501;51.462;14.346;2023-05-03T00:04:33;101212.97;;;8.21;75.26
29569;BME280;16501;51.462;14.346;2023-05-03T00:06:59;101213.81;;;8.18;75.43
29569;BME280;16501;51.462;14.346;2023-05-03T00:09:24;101221.84;;;8.16;75.84
29569;BME280;16501;51.462;14.346;2023-05-03T00:11:49;101224.06;;;8.24;75.44
29569;BME280;16501;51.462;14.346;2023-05-03T00:14:15;101217.03;;;8.16;76.12
29569;BME280;16501;51.462;14.346;2023-05-03T00:16:40;101206.66;;;8.17;75.75
29569;BME280;16501;51.462;14.346;2023-05-03T00:19:05;101217.31;;;8.22;75.63
29569;BME280;16501;51.462;14.346;2023-05-03T00:21:31;101222.81;;;8.25;75.95
29569;BME280;16501;51.462;14.346;2023-05-03T00:23:56;101215.94;;;8.30;76.45
29569;BME280;16501;51.462;14.346;2023-05-03T00:26:21;101201.44;;;8.19;76.74
29569;BME280;16501;51.462;14.346;2023-05-03T00:28:49;101209.81;;;8.19;77.09
29569;BME280;16501;51.462;14.346;2023-05-03T00:31:14;101203.50;;;8.15;77.38
29569;BME280;16501;51.462;14.346;2023-05-03T00:33:40;101213.75;;;8.21;77.49
29569;BME280;16501;51.462;14.346;2023-05-03T00:36:09;101209.38;;;8.20;78.06
29569;BME280;16501;51.462;14.346;2023-05-03T00:38:35;101213.81;;;8.18;78.14
29569;BME280;16501;51.462;14.346;2023-05-03T00:41:00;101196.00;;;8.11;78.07
29569;BME280;16501;51.462;14.346;2023-05-03T00:43:27;101198.78;;;8.11;78.94
29569;BME280;16501;51.462;14.346;2023-05-03T00:45:53;101182.78;;;7.96;78.89
29569;BME280;16501;51.462;14.346;2023-05-03T00:48:18;101194.34;;;8.14;79.75
29569;BME280;16501;51.462;14.346;2023-05-03T00:50:45;101193.56;;;8.14;79.98
29569;BME280;16501;51.462;14.346;2023-05-03T00:53:11;101198.72;;;8.15;79.37
29569;BME280;16501;51.462;14.346;2023-05-03T00:55:36;101200.72;;;8.15;78.55
29569;BME280;16501;51.462;14.346;2023-05-03T00:58:01;101205.78;;;8.20;78.52
29569;BME280;16501;51.462;14.346;2023-05-03T01:00:26;101204.59;;;8.21;78.04
29569;BME280;16501;51.462;14.346;2023-05-03T01:02:52;101201.56;;;8.11;77.28
29569;BME280;16501;51.462;14.346;2023-05-03T01:05:19;101195.28;;;8.07;77.23
29569;BME280;16501;51.462;14.346;2023-05-03T01:08:08;101213.81;;;8.18;77.13
29569;BME280;16501;51.462;14.346;2023-05-03T01:10:47;101214.25;;;8.16;77.20
29569;BME280;16501;51.462;14.346;2023-05-03T01:16:43;101203.50;;;8.15;78.89
29569;BME280;16501;51.462;14.346;2023-05-03T01:19:05;101201.88;;;8.17;78.68
29569;BME280;16501;51.462;14.346;2023-05-03T01:21:32;101212.75;;;8.11;79.38
29569;BME280;16501;51.462;14.346;2023-05-03T01:24:13;101213.28;;;8.06;78.02
29569;BME280;16501;51.462;14.346;2023-05-03T01:26:41;101204.97;;;8.03;77.66
29569;BME280;16501;51.462;14.346;2023-05-03T01:29:07;101195.97;;;7.95;77.96
29569;BME280;16501;51.462;14.346;2023-05-03T01:31:43;101198.84;;;7.91;77.60
29569;BME280;16501;51.462;14.346;2023-05-03T01:34:17;101213.41;;;7.99;77.54
29569;BME280;16501;51.462;14.346;2023-05-03T01:36:48;101211.50;;;7.96;77.93
29569;BME280;16501;51.462;14.346;2023-05-03T01:39:25;101212.72;;;7.95;78.23
29569;BME280;16501;51.462;14.346;2023-05-03T01:41:59;101197.75;;;7.85;78.02
29569;BME280;16501;51.462;14.346;2023-05-03T01:44:26;101217.44;;;7.98;77.79
29569;BME280;16501;51.462;14.346;2023-05-03T01:46:52;101209.91;;;7.95;77.89
29569;BME280;16501;51.462;14.346;2023-05-03T01:49:18;101166.72;;;7.63;77.95
29569;BME280;16501;51.462;14.346;2023-05-03T01:51:43;101203.50;;;7.78;78.58
29569;BME280;16501;51.462;14.346;2023-05-03T01:54:08;101207.44;;;7.81;78.37
29569;BME280;16501;51.462;14.346;2023-05-03T01:56:34;101206.34;;;7.74;78.35
29569;BME280;16501;51.462;14.346;2023-05-03T01:59:03;101200.91;;;7.67;77.78
29569;BME280;16501;51.462;14.346;2023-05-03T02:01:28;101214.38;;;7.72;78.19
29569;BME280;16501;51.462;14.346;2023-05-03T02:03:53;101193.47;;;7.61;77.94
29569;BME280;16501;51.462;14.346;2023-05-03T02:06:18;101183.19;;;7.58;78.25
29569;BME280;16501;51.462;14.346;2023-05-03T02:08:44;101207.00;;;7.62;78.39
29569;BME280;16501;51.462;14.346;2023-05-03T02:11:10;101200.72;;;7.58;78.80
29569;BME280;16501;51.462;14.346;2023-05-03T02:13:36;101199.28;;;7.50;79.45
29569;BME280;16501;51.462;14.346;2023-05-03T02:16:02;101193.78;;;7.46;79.46
29569;BME280;16501;51.462;14.346;2023-05-03T02:18:27;101209.81;;;7.42;79.95
29569;BME280;16501;51.462;14.346;2023-05-03T02:20:55;101199.56;;;7.35;80.50
29569;BME280;16501;51.462;14.346;2023-05-03T02:23:21;101207.00;;;7.42;80.48
29569;BME280;16501;51.462;14.346;2023-05-03T02:25:46;101189.75;;;7.27;81.12
29569;BME280;16501;51.462;14.346;2023-05-03T02:28:11;101199.69;;;7.28;81.13
29569;BME280;16501;51.462;14.346;2023-05-03T02:30:36;101196.47;;;7.30;81.55
29569;BME280;16501;51.462;14.346;2023-05-03T02:33:02;101211.91;;;7.34;81.78
29569;BME280;16501;51.462;14.346;2023-05-03T02:35:27;101197.41;;;7.23;81.40
29569;BME280;16501;51.462;14.346;2023-05-03T02:37:52;101209.19;;;7.31;81.53
29569;BME280;16501;51.462;14.346;2023-05-03T02:40:17;101199.09;;;7.17;82.23
29569;BME280;16501;51.462;14.346;2023-05-03T02:42:43;101200.75;;;7.14;82.70
29569;BME280;16501;51.462;14.346;2023-05-03T02:45:08;101197.63;;;7.09;82.45
29569;BME280;16501;51.462;14.346;2023-05-03T02:47:33;101215.47;;;7.15;83.25
29569;BME280;16501;51.462;14.346;2023-05-03T02:49:59;101198.88;;;6.84;84.98
29569;BME280;16501;51.462;14.346;2023-05-03T02:52:24;101199.91;;;6.94;84.63
29569;BME280;16501;51.462;14.346;2023-05-03T02:54:49;101220.00;;;7.05;84.20
29569;BME280;16501;51.462;14.346;2023-05-03T02:57:15;101221.78;;;6.95;85.07
29569;BME280;16501;51.462;14.346;2023-05-03T02:59:40;101217.19;;;6.85;85.42
29569;BME280;16501;51.462;14.346;2023-05-03T03:02:05;101212.81;;;6.84;85.78
29569;BME280;16501;51.462;14.346;2023-05-03T03:04:31;101221.56;;;6.86;86.90
29569;BME280;16501;51.462;14.346;2023-05-03T03:06:56;101222.03;;;6.81;87.56
29569;BME280;16501;51.462;14.346;2023-05-03T03:09:21;101207.91;;;6.68;87.40
29569;BME280;16501;51.462;14.346;2023-05-03T03:11:47;101224.81;;;6.81;88.00
29569;BME280;16501;51.462;14.346;2023-05-03T03:14:12;101206.41;;;6.64;87.96
29569;BME280;16501;51.462;14.346;2023-05-03T03:16:37;101216.69;;;6.67;88.54
29569;BME280;16501;51.462;14.346;2023-05-03T03:19:03;101217.53;;;6.64;88.81
29569;BME280;16501;51.462;14.346;2023-05-03T03:21:28;101226.16;;;6.73;88.98
29569;BME280;16501;51.462;14.346;2023-05-03T03:23:55;101227.88;;;6.63;90.21
29569;BME280;16501;51.462;14.346;2023-05-03T03:26:20;101227.09;;;6.63;90.16
29569;BME280;16501;51.462;14.346;2023-05-03T03:28:45;101238.97;;;6.67;89.82
29569;BME280;16501;51.462;14.346;2023-05-03T03:31:10;101214.47;;;6.54;89.43
29569;BME280;16501;51.462;14.346;2023-05-03T03:33:36;101226.00;;;6.56;89.17
29569;BME280;16501;51.462;14.346;2023-05-03T03:36:01;101233.69;;;6.49;89.95
29569;BME280;16501;51.462;14.346;2023-05-03T03:38:26;101227.38;;;6.45;90.07
29569;BME280;16501;51.462;14.346;2023-05-03T03:40:52;101241.97;;;6.52;90.26
29569;BME280;16501;51.462;14.346;2023-05-03T03:43:18;101244.00;;;6.52;90.15
29569;BME280;16501;51.462;14.346;2023-05-03T03:45:43;101251.59;;;6.48;90.92
29569;BME280;16501;51.462;14.346;2023-05-03T03:48:09;101252.81;;;6.47;90.84
29569;BME280;16501;51.462;14.346;2023-05-03T03:50:35;101258.03;;;6.45;89.87
29569;BME280;16501;51.462;14.346;2023-05-03T03:53:00;101235.81;;;6.37;90.31
29569;BME280;16501;51.462;14.346;2023-05-03T03:55:25;101242.63;;;6.36;89.99
29569;BME280;16501;51.462;14.346;2023-05-03T03:57:51;101248.13;;;6.40;90.51
29569;BME280;16501;51.462;14.346;2023-05-03T04:00:16;101220.97;;;6.20;90.32
29569;BME280;16501;51.462;14.346;2023-05-03T04:02:41;101254.06;;;6.42;90.87
29569;BME280;16501;51.462;14.346;2023-05-03T04:05:07;101250.88;;;6.44;90.71
29569;BME280;16501;51.462;14.346;2023-05-03T04:07:32;101252.97;;;6.36;91.10
29569;BME280;16501;51.462;14.346;2023-05-03T04:09:57;101259.28;;;6.40;91.16
29569;BME280;16501;51.462;14.346;2023-05-03T04:12:23;101285.06;;;6.44;91.51
29569;BME280;16501;51.462;14.346;2023-05-03T04:14:48;101266.97;;;6.32;92.05
29569;BME280;16501;51.462;14.346;2023-05-03T04:17:13;101261.81;;;6.31;92.90
29569;BME280;16501;51.462;14.346;2023-05-03T04:19:38;101268.50;;;6.33;92.80
29569;BME280;16501;51.462;14.346;2023-05-03T04:22:04;101259.47;;;6.26;92.91
29569;BME280;16501;51.462;14.346;2023-05-03T04:24:29;101291.03;;;6.46;93.72
29569;BME280;16501;51.462;14.346;2023-05-03T04:26:55;101296.56;;;6.50;93.66
29569;BME280;16501;51.462;14.346;2023-05-03T04:29:21;101287.19;;;6.36;93.59
29569;BME280;16501;51.462;14.346;2023-05-03T04:31:46;101276.81;;;6.37;93.39
29569;BME280;16501;51.462;14.346;2023-05-03T04:34:11;101277.19;;;6.39;93.88
29569;BME280;16501;51.462;14.346;2023-05-03T04:36:40;101285.47;;;6.46;94.20
29569;BME280;16501;51.462;14.346;2023-05-03T04:39:10;101295.22;;;6.58;94.74
29569;BME280;16501;51.462;14.346;2023-05-03T04:41:37;101304.34;;;6.62;94.30
29569;BME280;16501;51.462;14.346;2023-05-03T04:44:04;101306.31;;;6.61;93.96
29569;BME280;16501;51.462;14.346;2023-05-03T04:46:29;101310.41;;;6.57;92.48
29569;BME280;16501;51.462;14.346;2023-05-03T04:48:55;101311.47;;;6.63;91.73
29569;BME280;16501;51.462;14.346;2023-05-03T04:51:20;101303.59;;;6.58;91.18
29569;BME280;16501;51.462;14.346;2023-05-03T04:53:45;101318.22;;;6.66;91.01
29569;BME280;16501;51.462;14.346;2023-05-03T04:56:11;101320.56;;;6.71;91.34
29569;BME280;16501;51.462;14.346;2023-05-03T04:58:36;101310.97;;;6.72;91.71
29569;BME280;16501;51.462;14.346;2023-05-03T05:01:02;101313.69;;;6.75;92.64
29569;BME280;16501;51.462;14.346;2023-05-03T05:03:27;101329.47;;;6.86;91.97
29569;BME280;16501;51.462;14.346;2023-05-03T05:06:01;101333.44;;;6.88;90.82
29569;BME280;16501;51.462;14.346;2023-05-03T05:08:26;101328.28;;;6.87;90.48
29569;BME280;16501;51.462;14.346;2023-05-03T05:10:51;101317.28;;;6.76;88.74
29569;BME280;16501;51.462;14.346;2023-05-03T05:13:17;101337.41;;;6.87;88.49
29569;BME280;16501;51.462;14.346;2023-05-03T05:15:42;101316.91;;;6.74;88.83
29569;BME280;16501;51.462;14.346;2023-05-03T05:18:07;101341.03;;;6.84;87.41
29569;BME280;16501;51.462;14.346;2023-05-03T05:20:33;101333.53;;;6.81;87.73
29569;BME280;16501;51.462;14.346;2023-05-03T05:22:58;101325.66;;;6.76;88.54
29569;BME280;16501;51.462;14.346;2023-05-03T05:25:23;101344.13;;;6.93;88.86
29569;BME280;16501;51.462;14.346;2023-05-03T05:27:48;101344.41;;;6.99;87.41
29569;BME280;16501;51.462;14.346;2023-05-03T05:30:14;101336.53;;;6.94;87.72
29569;BME280;16501;51.462;14.346;2023-05-03T05:32:39;101339.63;;;6.99;87.82
29569;BME280;16501;51.462;14.346;2023-05-03T05:35:05;101347.34;;;7.15;88.07
29569;BME280;16501;51.462;14.346;2023-05-03T05:37:30;101355.19;;;7.24;88.87
29569;BME280;16501;51.462;14.346;2023-05-03T05:39:56;101346.19;;;7.13;85.75
29569;BME280;16501;51.462;14.346;2023-05-03T05:42:21;101351.25;;;7.22;84.91
29569;BME280;16501;51.462;14.346;2023-05-03T05:44:46;101338.06;;;7.22;84.67
29569;BME280;16501;51.462;14.346;2023-05-03T05:47:12;101343.53;;;7.29;83.70
29569;BME280;16501;51.462;14.346;2023-05-03T05:49:37;101337.00;;;7.16;80.19
29569;BME280;16501;51.462;14.346;2023-05-03T05:52:02;101338.66;;;7.10;79.24
29569;BME280;16501;51.462;14.346;2023-05-03T05:54:27;101355.97;;;7.25;80.17
29569;BME280;16501;51.462;14.346;2023-05-03T05:56:53;101351.97;;;7.26;79.65
29569;BME280;16501;51.462;14.346;2023-05-03T05:59:18;101354.28;;;7.31;79.27
29569;BME280;16501;51.462;14.346;2023-05-03T06:01:44;101357.38;;;7.36;79.67
29569;BME280;16501;51.462;14.346;2023-05-03T06:04:14;101352.47;;;7.44;79.17
29569;BME280;16501;51.462;14.346;2023-05-03T06:06:40;101355.13;;;7.51;76.77
29569;BME280;16501;51.462;14.346;2023-05-03T06:09:05;101366.41;;;7.68;77.26
29569;BME280;16501;51.462;14.346;2023-05-03T06:11:31;101368.69;;;7.73;72.84
29569;BME280;16501;51.462;14.346;2023-05-03T06:13:57;101376.72;;;7.71;75.93
29569;BME280;16501;51.462;14.346;2023-05-03T06:16:23;101366.22;;;7.79;75.27
29569;BME280;16501;51.462;14.346;2023-05-03T06:18:49;101367.84;;;7.76;73.21
29569;BME280;16501;51.462;14.346;2023-05-03T06:21:14;101373.16;;;7.90;72.62
29569;BME280;16501;51.462;14.346;2023-05-03T06:23:40;101375.53;;;7.92;71.95
29569;BME280;16501;51.462;14.346;2023-05-03T06:26:05;101369.09;;;7.95;72.60
29569;BME280;16501;51.462;14.346;2023-05-03T06:28:31;101378.03;;;7.86;72.52
29569;BME280;16501;51.462;14.346;2023-05-03T06:30:56;101376.72;;;8.15;73.39
29569;BME280;16501;51.462;14.346;2023-05-03T06:33:21;101377.84;;;8.37;72.31
29569;BME280;16501;51.462;14.346;2023-05-03T06:35:47;101372.66;;;8.59;71.83
29569;BME280;16501;51.462;14.346;2023-05-03T06:38:12;101387.97;;;8.71;70.26
29569;BME280;16501;51.462;14.346;2023-05-03T06:40:38;101393.34;;;8.62;70.06
29569;BME280;16501;51.462;14.346;2023-05-03T06:43:05;101393.84;;;8.57;69.25
29569;BME280;16501;51.462;14.346;2023-05-03T06:45:30;101382.47;;;8.47;70.40
29569;BME280;16501;51.462;14.346;2023-05-03T06:47:56;101390.34;;;8.53;71.69
29569;BME280;16501;51.462;14.346;2023-05-03T06:50:21;101386.91;;;8.65;70.49
29569;BME280;16501;51.462;14.346;2023-05-03T06:52:48;101389.53;;;8.72;69.70
29569;BME280;16501;51.462;14.346;2023-05-03T06:55:13;101391.50;;;8.92;71.14
29569;BME280;16501;51.462;14.346;2023-05-03T06:57:39;101393.84;;;9.13;69.45
29569;BME280;16501;51.462;14.346;2023-05-03T07:00:05;101385.34;;;9.33;69.78
29569;BME280;16501;51.462;14.346;2023-05-03T07:02:34;101403.72;;;9.51;66.81
29569;BME280;16501;51.462;14.346;2023-05-03T07:05:00;101380.78;;;9.56;66.52
29569;BME280;16501;51.462;14.346;2023-05-03T07:07:25;101383.59;;;9.72;66.09
29569;BME280;16501;51.462;14.346;2023-05-03T07:09:50;101389.78;;;9.80;65.12
29569;BME280;16501;51.462;14.346;2023-05-03T07:12:16;101388.91;;;9.83;63.31
29569;BME280;16501;51.462;14.346;2023-05-03T07:14:41;101392.75;;;9.89;63.29
29569;BME280;16501;51.462;14.346;2023-05-03T07:17:07;101387.50;;;9.91;64.82
29569;BME280;16501;51.462;14.346;2023-05-03T07:19:32;101389.91;;;10.06;64.59
29569;BME280;16501;51.462;14.346;2023-05-03T07:21:58;101395.66;;;10.15;64.14
29569;BME280;16501;51.462;14.346;2023-05-03T07:24:23;101385.16;;;10.19;63.35
29569;BME280;16501;51.462;14.346;2023-05-03T07:26:50;101390.56;;;10.26;64.75
29569;BME280;16501;51.462;14.346;2023-05-03T07:29:15;101383.44;;;10.38;63.12
29569;BME280;16501;51.462;14.346;2023-05-03T07:31:40;101389.94;;;10.18;59.31
29569;BME280;16501;51.462;14.346;2023-05-03T07:34:06;101381.97;;;10.33;62.08
29569;BME280;16501;51.462;14.346;2023-05-03T07:36:31;101387.59;;;10.46;62.20
29569;BME280;16501;51.462;14.346;2023-05-03T07:38:56;101375.28;;;10.44;60.53
29569;BME280;16501;51.462;14.346;2023-05-03T07:41:22;101361.59;;;10.46;59.49
29569;BME280;16501;51.462;14.346;2023-05-03T07:43:48;101375.72;;;10.55;58.56
29569;BME280;16501;51.462;14.346;2023-05-03T07:46:13;101383.94;;;10.62;57.87
29569;BME280;16501;51.462;14.346;2023-05-03T07:48:38;101393.50;;;10.78;57.54
29569;BME280;16501;51.462;14.346;2023-05-03T07:51:04;101389.47;;;10.91;57.57
29569;BME280;16501;51.462;14.346;2023-05-03T07:53:29;101380.94;;;10.95;56.85
29569;BME280;16501;51.462;14.346;2023-05-03T07:55:54;101372.41;;;10.99;56.81
29569;BME280;16501;51.462;14.346;2023-05-03T07:58:20;101380.84;;;11.11;56.67
29569;BME280;16501;51.462;14.346;2023-05-03T08:00:45;101374.91;;;11.09;55.97
29569;BME280;16501;51.462;14.346;2023-05-03T08:03:10;101359.94;;;11.12;57.45
29569;BME280;16501;51.462;14.346;2023-05-03T08:05:35;101385.22;;;11.12;56.31
29569;BME280;16501;51.462;14.346;2023-05-03T08:08:01;101380.47;;;11.35;53.41
29569;BME280;16501;51.462;14.346;2023-05-03T08:10:28;101371.34;;;11.44;53.30
29569;BME280;16501;51.462;14.346;2023-05-03T08:12:53;101363.31;;;11.20;53.05
29569;BME280;16501;51.462;14.346;2023-05-03T08:15:18;101363.31;;;10.94;53.62
29569;BME280;16501;51.462;14.346;2023-05-03T08:17:44;101386.88;;;10.71;55.10
29569;BME280;16501;51.462;14.346;2023-05-03T08:20:11;101372.97;;;10.68;53.30
29569;BME280;16501;51.462;14.346;2023-05-03T08:22:39;101355.69;;;10.69;52.12
29569;BME280;16501;51.462;14.346;2023-05-03T08:25:06;101375.66;;;10.97;51.11
29569;BME280;16501;51.462;14.346;2023-05-03T08:27:32;101377.91;;;11.28;51.81
29569;BME280;16501;51.462;14.346;2023-05-03T08:29:57;101371.13;;;11.51;51.22
29569;BME280;16501;51.462;14.346;2023-05-03T08:32:24;101380.91;;;11.46;52.14
29569;BME280;16501;51.462;14.346;2023-05-03T08:34:51;101381.59;;;11.25;52.45
29569;BME280;16501;51.462;14.346;2023-05-03T08:37:16;101353.78;;;10.66;51.59
29569;BME280;16501;51.462;14.346;2023-05-03T08:39:41;101369.34;;;10.67;50.50
29569;BME280;16501;51.462;14.346;2023-05-03T08:42:07;101364.44;;;10.84;51.46
29569;BME280;16501;51.462;14.346;2023-05-03T08:44:36;101358.50;;;10.82;53.59
29569;BME280;16501;51.462;14.346;2023-05-03T08:47:03;101372.53;;;11.21;53.24
29569;BME280;16501;51.462;14.346;2023-05-03T08:49:30;101364.19;;;11.43;54.91
29569;BME280;16501;51.462;14.346;2023-05-03T08:51:57;101380.47;;;11.48;50.82
29569;BME280;16501;51.462;14.346;2023-05-03T08:54:24;101354.94;;;11.55;48.92
29569;BME280;16501;51.462;14.346;2023-05-03T08:56:49;101385.09;;;11.77;49.12
29569;BME280;16501;51.462;14.346;2023-05-03T08:59:15;101377.41;;;11.55;48.85
29569;BME280;16501;51.462;14.346;2023-05-03T09:01:42;101382.28;;;11.77;49.26
29569;BME280;16501;51.462;14.346;2023-05-03T09:04:09;101370.78;;;11.62;50.06
29569;BME280;16501;51.462;14.346;2023-05-03T09:06:35;101393.94;;;11.53;48.72
29569;BME280;16501;51.462;14.346;2023-05-03T09:09:02;101384.97;;;11.45;49.55
29569;BME280;16501;51.462;14.346;2023-05-03T09:11:32;101370.16;;;11.32;48.43
29569;BME280;16501;51.462;14.346;2023-05-03T09:14:11;101384.22;;;11.06;49.82
29569;BME280;16501;51.462;14.346;2023-05-03T09:16:38;101359.06;;;11.03;50.15
29569;BME280;16501;51.462;14.346;2023-05-03T09:19:05;101374.94;;;11.57;48.28
29569;BME280;16501;51.462;14.346;2023-05-03T09:21:36;101385.44;;;11.92;48.13
29569;BME280;16501;51.462;14.346;2023-05-03T09:24:11;101388.03;;;12.21;48.84
29569;BME280;16501;51.462;14.346;2023-05-03T09:26:36;101388.31;;;12.45;47.16
29569;BME280;16501;51.462;14.346;2023-05-03T09:29:03;101380.56;;;12.80;47.32
29569;BME280;16501;51.462;14.346;2023-05-03T09:31:30;101376.75;;;13.06;47.86
29569;BME280;16501;51.462;14.346;2023-05-03T09:33:56;101379.66;;;13.24;47.35
29569;BME280;16501;51.462;14.346;2023-05-03T09:36:22;101360.72;;;12.84;45.65
29569;BME280;16501;51.462;14.346;2023-05-03T09:38:49;101371.88;;;12.66;46.78
29569;BME280;16501;51.462;14.346;2023-05-03T09:41:14;101381.06;;;12.35;46.51
29569;BME280;16501;51.462;14.346;2023-05-03T09:43:48;101380.66;;;12.01;48.16
29569;BME280;16501;51.462;14.346;2023-05-03T09:46:14;101388.38;;;11.75;48.41
29569;BME280;16501;51.462;14.346;2023-05-03T09:48:40;101377.81;;;11.66;49.64
29569;BME280;16501;51.462;14.346;2023-05-03T09:51:05;101375.47;;;11.65;48.75
29569;BME280;16501;51.462;14.346;2023-05-03T09:53:34;101371.38;;;12.14;49.60
29569;BME280;16501;51.462;14.346;2023-05-03T09:56:04;101379.31;;;12.50;47.43
29569;BME280;16501;51.462;14.346;2023-05-03T09:58:36;101369.13;;;12.75;47.06
29569;BME280;16501;51.462;14.346;2023-05-03T10:01:02;101374.09;;;13.02;46.82
29569;BME280;16501;51.462;14.346;2023-05-03T10:03:33;101367.66;;;13.33;49.42
29569;BME280;16501;51.462;14.346;2023-05-03T10:06:37;101365.44;;;13.28;48.10
29569;BME280;16501;51.462;14.346;2023-05-03T10:11:47;101348.53;;;13.28;48.38
29569;BME280;16501;51.462;14.346;2023-05-03T10:14:13;101356.56;;;13.48;46.42
29569;BME280;16501;51.462;14.346;2023-05-03T10:16:42;101355.47;;;13.45;46.40
29569;BME280;16501;51.462;14.346;2023-05-03T10:19:32;101355.84;;;13.16;47.04
29569;BME280;16501;51.462;14.346;2023-05-03T10:22:06;101349.53;;;13.02;46.55
29569;BME280;16501;51.462;14.346;2023-05-03T10:24:32;101360.88;;;13.21;45.28
29569;BME280;16501;51.462;14.346;2023-05-03T10:26:58;101338.63;;;13.14;44.02
29569;BME280;16501;51.462;14.346;2023-05-03T10:32:37;101348.47;;;13.77;43.57
29569;BME280;16501;51.462;14.346;2023-05-03T10:35:09;101350.66;;;13.73;44.23
29569;BME280;16501;51.462;14.346;2023-05-03T10:37:36;101342.38;;;13.88;43.31
29569;BME280;16501;51.462;14.346;2023-05-03T10:40:39;101343.78;;;14.02;43.28
29569;BME280;16501;51.462;14.346;2023-05-03T10:43:05;101346.06;;;14.31;45.19
29569;BME280;16501;51.462;14.346;2023-05-03T10:45:30;101342.31;;;14.34;45.71
29569;BME280;16501;51.462;14.346;2023-05-03T10:50:34;101324.28;;;14.41;42.33
29569;BME280;16501;51.462;14.346;2023-05-03T10:53:00;101335.22;;;14.67;42.34
29569;BME280;16501;51.462;14.346;2023-05-03T10:55:25;101321.25;;;14.54;42.23
29569;BME280;16501;51.462;14.346;2023-05-03T10:57:55;101330.22;;;14.62;40.71
29569;BME280;16501;51.462;14.346;2023-05-03T11:03:10;101343.25;;;14.41;42.64
29569;BME280;16501;51.462;14.346;2023-05-03T11:05:37;101340.00;;;14.24;41.65
29569;BME280;16501;51.462;14.346;2023-05-03T11:08:20;101327.47;;;13.88;42.22
29569;BME280;16501;51.462;14.346;2023-05-03T11:10:49;101319.81;;;13.79;45.22
29569;BME280;16501;51.462;14.346;2023-05-03T11:13:15;101339.38;;;14.10;42.49
29569;BME280;16501;51.462;14.346;2023-05-03T11:15:41;101339.69;;;13.66;43.38
29569;BME280;16501;51.462;14.346;2023-05-03T11:18:07;101330.31;;;13.69;44.20
29569;BME280;16501;51.462;14.346;2023-05-03T11:20:34;101327.66;;;13.66;42.52
29569;BME280;16501;51.462;14.346;2023-05-03T11:22:59;101282.69;;;13.81;44.95
29569;BME280;16501;51.462;14.346;2023-05-03T11:25:25;101306.16;;;14.14;42.95
29569;BME280;16501;51.462;14.346;2023-05-03T11:27:51;101320.34;;;14.48;41.05
29569;BME280;16501;51.462;14.346;2023-05-03T11:30:16;101315.31;;;14.52;41.29
29569;BME280;16501;51.462;14.346;2023-05-03T11:32:42;101328.88;;;14.81;41.81
29569;BME280;16501;51.462;14.346;2023-05-03T11:35:08;101317.69;;;14.96;40.79
29569;BME280;16501;51.462;14.346;2023-05-03T11:37:33;101324.09;;;14.97;41.92
29569;BME280;16501;51.462;14.346;2023-05-03T11:39:59;101316.50;;;15.12;41.70
29569;BME280;16501;51.462;14.346;2023-05-03T11:42:24;101317.75;;;15.35;41.69
29569;BME280;16501;51.462;14.346;2023-05-03T11:44:53;101326.31;;;15.50;40.82
29569;BME280;16501;51.462;14.346;2023-05-03T11:47:19;101323.81;;;15.43;43.44
29569;BME280;16501;51.462;14.346;2023-05-03T11:49:55;101326.63;;;14.95;40.56
29569;BME280;16501;51.462;14.346;2023-05-03T11:52:23;101331.63;;;15.00;41.57
29569;BME280;16501;51.462;14.346;2023-05-03T11:54:49;101340.16;;;14.81;42.63
29569;BME280;16501;51.462;14.346;2023-05-03T11:57:15;101341.22;;;14.41;40.28
29569;BME280;16501;51.462;14.346;2023-05-03T11:59:41;101336.25;;;14.08;41.25
29569;BME280;16501;51.462;14.346;2023-05-03T12:02:08;101334.19;;;14.27;42.76
29569;BME280;16501;51.462;14.346;2023-05-03T12:04:36;101329.59;;;14.48;42.22
29569;BME280;16501;51.462;14.346;2023-05-03T12:07:09;101334.19;;;14.88;42.79
29569;BME280;16501;51.462;14.346;2023-05-03T12:09:35;101320.00;;;14.98;42.87
29569;BME280;16501;51.462;14.346;2023-05-03T12:12:01;101314.97;;;15.02;40.42
29569;BME280;16501;51.462;14.346;2023-05-03T12:14:27;101327.63;;;15.40;41.58
29569;BME280;16501;51.462;14.346;2023-05-03T12:16:53;101318.50;;;15.45;40.26
29569;BME280;16501;51.462;14.346;2023-05-03T12:19:26;101313.16;;;15.62;40.59
29569;BME280;16501;51.462;14.346;2023-05-03T12:21:51;101317.13;;;15.79;40.73
29569;BME280;16501;51.462;14.346;2023-05-03T12:24:17;101315.81;;;15.90;42.55
29569;BME280;16501;51.462;14.346;2023-05-03T12:26:46;101300.31;;;15.85;41.62
29569;BME280;16501;51.462;14.346;2023-05-03T12:29:12;101301.47;;;15.93;40.33
29569;BME280;16501;51.462;14.346;2023-05-03T12:31:38;101302.56;;;15.72;38.68
29569;BME280;16501;51.462;14.346;2023-05-03T12:34:03;101291.69;;;15.79;38.79
29569;BME280;16501;51.462;14.346;2023-05-03T12:36:29;101298.84;;;15.65;38.20
29569;BME280;16501;51.462;14.346;2023-05-03T12:38:56;101300.78;;;15.59;41.45
29569;BME280;16501;51.462;14.346;2023-05-03T12:41:22;101306.34;;;15.78;38.44
29569;BME280;16501;51.462;14.346;2023-05-03T12:43:49;101296.47;;;15.88;39.46
29569;BME280;16501;51.462;14.346;2023-05-03T12:46:14;101292.03;;;15.72;40.32
29569;BME280;16501;51.462;14.346;2023-05-03T12:48:40;101293.84;;;15.84;39.34
29569;BME280;16501;51.462;14.346;2023-05-03T12:51:05;101294.47;;;15.89;38.72
29569;BME280;16501;51.462;14.346;2023-05-03T12:53:30;101300.13;;;16.03;38.83
29569;BME280;16501;51.462;14.346;2023-05-03T12:55:56;101296.91;;;16.11;38.25
29569;BME280;16501;51.462;14.346;2023-05-03T12:58:21;101297.31;;;16.18;38.02